Time;durP1;ratioP1;P1;durP2;ratioP2;P2;SDS_P1;SDS_P2;PMS_P1;PMS_P2;Temp;Humidity;BMP_temperature;BMP_pressure;BME280_temperature;BME280_humidity;BME280_pressure;Samples;Min_cycle;Max_cycle;Signal;HPM_P1;HPM_P2
2022/07/29 00:01:07;;;;;;;1999.90;999.90;;;;;;;;;;4957356;28;20762;-71
2022/07/29 00:03:52;;;;;;;1999.90;999.90;;;;;;;;;;4970195;28;20423;-70
2022/07/29 00:06:37;;;;;;;1999.90;999.90;;;;;;;;;;4972976;28;20247;-70
2022/07/29 00:09:24;;;;;;;1999.90;999.90;;;;;;;;;;4972566;28;20204;-70
2022/07/29 00:12:09;;;;;;;1999.90;999.90;;;;;;;;;;4973196;28;20223;-70
2022/07/29 00:14:54;;;;;;;1999.90;999.90;;;;;;;;;;4954898;28;20236;-71
2022/07/29 00:17:40;;;;;;;1999.90;999.90;;;;;;;;;;4971842;28;20319;-70
2022/07/29 00:20:25;;;;;;;1999.90;999.90;;;;;;;;;;4973282;28;20216;-71
2022/07/29 00:23:10;;;;;;;1999.90;999.90;;;;;;;;;;4973298;28;20215;-71
2022/07/29 00:25:55;;;;;;;1999.90;999.90;;;;;;;;;;4956726;28;20729;-70
2022/07/29 00:28:40;;;;;;;1999.90;999.90;;;;;;;;;;4974219;28;20208;-71
2022/07/29 00:31:25;;;;;;;1999.90;999.90;;;;;;;;;;4974799;28;20205;-70
2022/07/29 00:37:11;;;;;;;1999.90;999.90;;;;;;;;;;4974288;28;20219;-70
2022/07/29 00:39:56;;;;;;;1999.90;999.90;;;;;;;;;;4973412;28;20510;-70
2022/07/29 00:42:42;;;;;;;1999.90;999.90;;;;;;;;;;4972827;28;20212;-70
2022/07/29 00:45:27;;;;;;;1999.90;999.90;;;;;;;;;;4973953;28;20227;-70
2022/07/29 00:48:12;;;;;;;1999.90;999.90;;;;;;;;;;4973945;28;20227;-70
2022/07/29 00:51:00;;;;;;;1999.90;999.90;;;;;;;;;;4974324;28;20212;-71
2022/07/29 00:53:49;;;;;;;1999.90;999.90;;;;;;;;;;4973845;28;20625;-70
2022/07/29 00:56:34;;;;;;;1999.90;999.90;;;;;;;;;;4973884;28;20780;-70
2022/07/29 00:59:20;;;;;;;1999.90;999.90;;;;;;;;;;4973825;28;20340;-70
2022/07/29 01:02:05;;;;;;;1999.90;999.90;;;;;;;;;;4972833;28;20344;-70
2022/07/29 01:04:52;;;;;;;1999.90;999.90;;;;;;;;;;4972007;28;20325;-70
2022/07/29 01:07:39;;;;;;;1999.90;999.90;;;;;;;;;;4973731;28;20215;-71
2022/07/29 01:10:25;;;;;;;1999.90;999.90;;;;;;;;;;4972862;28;20227;-71
2022/07/29 01:13:10;;;;;;;1999.90;999.90;;;;;;;;;;4973622;28;20205;-70
2022/07/29 01:15:58;;;;;;;1999.90;999.90;;;;;;;;;;4972527;28;20862;-70
2022/07/29 01:18:46;;;;;;;1999.90;999.90;;;;;;;;;;4973324;28;20823;-71
2022/07/29 01:21:53;;;;;;;1999.90;999.90;;;;;;;;;;4973743;28;20295;-71
2022/07/29 01:24:50;;;;;;;1999.90;999.90;;;;;;;;;;4973433;28;20235;-71
2022/07/29 01:27:42;;;;;;;1999.90;999.90;;;;;;;;;;4973437;28;20195;-70
2022/07/29 01:30:29;;;;;;;1999.90;999.90;;;;;;;;;;4972712;28;20208;-70
2022/07/29 01:33:48;;;;;;;1999.90;999.90;;;;;;;;;;4972174;28;20434;-71
2022/07/29 01:36:24;;;;;;;1999.90;999.90;;;;;;;;;;4969655;28;20697;-70
2022/07/29 01:39:10;;;;;;;1999.90;999.90;;;;;;;;;;4972916;28;20204;-70
2022/07/29 01:41:58;;;;;;;1999.90;999.90;;;;;;;;;;4971775;28;20216;-70
2022/07/29 01:44:47;;;;;;;1999.90;999.90;;;;;;;;;;4973051;28;20247;-70
2022/07/29 01:47:35;;;;;;;1999.90;999.90;;;;;;;;;;4973395;28;20546;-70
2022/07/29 01:50:21;;;;;;;1999.90;999.90;;;;;;;;;;4971699;28;20535;-70
2022/07/29 01:53:08;;;;;;;1999.90;999.90;;;;;;;;;;4967554;28;20307;-70
2022/07/29 01:55:55;;;;;;;1999.90;999.90;;;;;;;;;;4973230;28;20248;-70
2022/07/29 01:58:42;;;;;;;1999.90;999.90;;;;;;;;;;4972869;28;20586;-70
2022/07/29 02:01:27;;;;;;;1999.90;999.90;;;;;;;;;;4973291;28;20583;-70
2022/07/29 02:04:15;;;;;;;1999.90;999.90;;;;;;;;;;4974327;28;20263;-70
2022/07/29 02:07:02;;;;;;;1999.90;999.90;;;;;;;;;;4976894;28;20901;-70
2022/07/29 02:09:48;;;;;;;1999.90;999.90;;;;;;;;;;4976906;28;20346;-70
2022/07/29 02:12:33;;;;;;;1999.90;999.90;;;;;;;;;;4975647;28;20324;-70
2022/07/29 02:15:19;;;;;;;1999.90;999.90;;;;;;;;;;4976853;28;20227;-70
2022/07/29 02:18:07;;;;;;;1999.90;999.90;;;;;;;;;;4976900;28;20577;-70
2022/07/29 02:20:55;;;;;;;1999.90;999.90;;;;;;;;;;4976723;28;20255;-69
2022/07/29 02:23:42;;;;;;;1999.90;999.90;;;;;;;;;;4976621;28;20230;-70
2022/07/29 02:26:28;;;;;;;1999.90;999.90;;;;;;;;;;4976580;28;20742;-70
2022/07/29 02:29:16;;;;;;;1999.90;999.90;;;;;;;;;;4976537;28;20318;-69
2022/07/29 02:32:01;;;;;;;1999.90;999.90;;;;;;;;;;4975742;28;20204;-70
2022/07/29 02:34:47;;;;;;;1999.90;999.90;;;;;;;;;;4976528;28;20614;-70
2022/07/29 02:37:34;;;;;;;1999.90;999.90;;;;;;;;;;4976703;28;20301;-70
2022/07/29 02:40:19;;;;;;;1999.90;999.90;;;;;;;;;;4975741;28;20290;-69
2022/07/29 02:43:06;;;;;;;1999.90;999.90;;;;;;;;;;4958103;28;20216;-70
2022/07/29 02:45:52;;;;;;;1999.90;999.90;;;;;;;;;;4968590;28;20223;-69
2022/07/29 02:48:39;;;;;;;1999.90;999.90;;;;;;;;;;4976057;28;20264;-69
2022/07/29 02:51:26;;;;;;;1999.90;999.90;;;;;;;;;;4976448;28;20204;-70
2022/07/29 02:54:19;;;;;;;1999.90;999.90;;;;;;;;;;4975950;28;20235;-69
2022/07/29 02:57:07;;;;;;;1999.90;999.90;;;;;;;;;;4956729;29;20204;-68
2022/07/29 02:59:53;;;;;;;1999.90;999.90;;;;;;;;;;4956603;28;20253;-69
2022/07/29 03:02:39;;;;;;;1999.90;999.90;;;;;;;;;;4956922;29;20699;-68
2022/07/29 03:05:24;;;;;;;1999.90;999.90;;;;;;;;;;4956836;29;20317;-69
2022/07/29 03:08:10;;;;;;;1999.90;999.90;;;;;;;;;;4956527;29;20587;-67
2022/07/29 03:10:56;;;;;;;1999.90;999.90;;;;;;;;;;4956857;29;20208;-69
2022/07/29 03:13:42;;;;;;;1999.90;999.90;;;;;;;;;;4969732;28;20238;-68
2022/07/29 03:16:27;;;;;;;1999.90;999.90;;;;;;;;;;4974357;28;20370;-68
2022/07/29 03:19:13;;;;;;;1999.90;999.90;;;;;;;;;;4967859;28;20215;-68
2022/07/29 03:21:59;;;;;;;1999.90;999.90;;;;;;;;;;4974068;28;20303;-68
2022/07/29 03:24:44;;;;;;;1999.90;999.90;;;;;;;;;;4971855;28;20243;-68
2022/07/29 03:27:30;;;;;;;1999.90;999.90;;;;;;;;;;4973490;28;20227;-69
2022/07/29 03:30:16;;;;;;;1999.90;999.90;;;;;;;;;;4973888;28;20704;-69
2022/07/29 03:33:01;;;;;;;1999.90;999.90;;;;;;;;;;4955404;28;20220;-69
2022/07/29 03:35:47;;;;;;;1999.90;999.90;;;;;;;;;;4956331;28;20205;-69
2022/07/29 03:38:34;;;;;;;1999.90;999.90;;;;;;;;;;4954925;28;20886;-68
2022/07/29 03:41:19;;;;;;;1999.90;999.90;;;;;;;;;;4972006;28;20698;-69
2022/07/29 03:44:06;;;;;;;1999.90;999.90;;;;;;;;;;4960342;28;20244;-68
2022/07/29 03:46:53;;;;;;;1999.90;999.90;;;;;;;;;;4956756;28;20220;-69
2022/07/29 03:49:40;;;;;;;1999.90;999.90;;;;;;;;;;4969662;28;20208;-68
2022/07/29 03:52:25;;;;;;;1999.90;999.90;;;;;;;;;;4973225;28;20266;-68
2022/07/29 03:55:10;;;;;;;1999.90;999.90;;;;;;;;;;4973223;28;20239;-68
2022/07/29 03:57:56;;;;;;;1999.90;999.90;;;;;;;;;;4973080;28;20328;-69
2022/07/29 04:00:43;;;;;;;1999.90;999.90;;;;;;;;;;4973056;28;20302;-69
2022/07/29 04:03:29;;;;;;;1999.90;999.90;;;;;;;;;;4972847;28;20223;-69
2022/07/29 04:06:13;;;;;;;1999.90;999.90;;;;;;;;;;4973125;28;20275;-67
2022/07/29 04:08:58;;;;;;;1999.90;999.90;;;;;;;;;;4972872;28;20590;-68
2022/07/29 04:11:43;;;;;;;1999.90;999.90;;;;;;;;;;4962328;28;20200;-68
2022/07/29 04:14:28;;;;;;;1999.90;999.90;;;;;;;;;;4970061;28;20730;-68
2022/07/29 04:17:14;;;;;;;1999.90;999.90;;;;;;;;;;4973958;28;20220;-69
2022/07/29 04:19:59;;;;;;;1999.90;999.90;;;;;;;;;;4957788;28;20699;-68
2022/07/29 04:22:45;;;;;;;1999.90;999.90;;;;;;;;;;4961654;28;20449;-68
2022/07/29 04:25:30;;;;;;;1999.90;999.90;;;;;;;;;;4986936;28;20207;-69
2022/07/29 04:28:16;;;;;;;1999.90;999.90;;;;;;;;;;4990890;28;20215;-67
2022/07/29 04:31:01;;;;;;;1999.90;999.90;;;;;;;;;;4992374;28;20224;-68
2022/07/29 04:33:47;;;;;;;1999.90;999.90;;;;;;;;;;4992282;28;20419;-68
2022/07/29 04:36:33;;;;;;;1999.90;999.90;;;;;;;;;;4994372;28;20207;-68
2022/07/29 04:39:18;;;;;;;1999.90;999.90;;;;;;;;;;4992649;28;20220;-68
2022/07/29 04:42:04;;;;;;;1999.90;999.90;;;;;;;;;;4983501;28;20261;-68
2022/07/29 04:44:49;;;;;;;1999.90;999.90;;;;;;;;;;4975079;28;20231;-68
2022/07/29 04:47:34;;;;;;;1999.90;999.90;;;;;;;;;;4990303;28;20217;-68
2022/07/29 04:50:21;;;;;;;1999.90;999.90;;;;;;;;;;4990498;28;20272;-67
2022/07/29 04:53:05;;;;;;;1999.90;999.90;;;;;;;;;;4991528;28;20260;-68
2022/07/29 04:55:51;;;;;;;1999.90;999.90;;;;;;;;;;4993053;28;20212;-68
2022/07/29 04:58:36;;;;;;;1999.90;999.90;;;;;;;;;;4990689;28;20215;-68
2022/07/29 05:01:21;;;;;;;1999.90;999.90;;;;;;;;;;4993492;28;20239;-69
2022/07/29 05:04:06;;;;;;;1999.90;999.90;;;;;;;;;;4994214;28;20252;-68
2022/07/29 05:06:52;;;;;;;1999.90;999.90;;;;;;;;;;4982878;28;20235;-69
2022/07/29 05:09:37;;;;;;;1999.90;999.90;;;;;;;;;;4990666;28;20418;-69
2022/07/29 05:12:22;;;;;;;1999.90;999.90;;;;;;;;;;4993186;28;20212;-69
2022/07/29 05:15:08;;;;;;;1999.90;999.90;;;;;;;;;;4994708;28;20227;-68
2022/07/29 05:17:53;;;;;;;1999.90;999.90;;;;;;;;;;4987262;28;20223;-68
2022/07/29 05:20:38;;;;;;;1999.90;999.90;;;;;;;;;;4975665;28;20203;-67
2022/07/29 05:23:24;;;;;;;1999.90;999.90;;;;;;;;;;4976955;28;20279;-68
2022/07/29 05:26:09;;;;;;;1999.90;999.90;;;;;;;;;;4976791;28;20265;-68
2022/07/29 05:28:54;;;;;;;1999.90;999.90;;;;;;;;;;4973402;28;20203;-68
2022/07/29 05:31:39;;;;;;;1999.90;999.90;;;;;;;;;;4980662;28;20221;-67
2022/07/29 05:34:25;;;;;;;1999.90;999.90;;;;;;;;;;4974403;28;20599;-69
2022/07/29 05:37:10;;;;;;;1999.90;999.90;;;;;;;;;;4994649;28;20220;-68
2022/07/29 05:39:56;;;;;;;1999.90;999.90;;;;;;;;;;4980361;28;20212;-68
2022/07/29 05:42:41;;;;;;;1999.90;999.90;;;;;;;;;;4977819;28;20200;-68
2022/07/29 05:45:27;;;;;;;1999.90;999.90;;;;;;;;;;4978141;28;20766;-71
2022/07/29 05:48:12;;;;;;;1999.90;999.90;;;;;;;;;;4978442;28;20771;-68
2022/07/29 05:50:57;;;;;;;1999.90;999.90;;;;;;;;;;4992238;28;20212;-68
2022/07/29 05:53:42;;;;;;;1999.90;999.90;;;;;;;;;;4993931;28;20252;-68
2022/07/29 05:56:28;;;;;;;1999.90;999.90;;;;;;;;;;4975298;28;20208;-68
2022/07/29 05:59:14;;;;;;;1999.90;999.90;;;;;;;;;;4974725;28;20212;-68
2022/07/29 06:01:59;;;;;;;1999.90;999.90;;;;;;;;;;4991766;28;20236;-68
2022/07/29 06:04:45;;;;;;;1999.90;999.90;;;;;;;;;;4980312;28;20234;-67
2022/07/29 06:07:30;;;;;;;1999.90;999.90;;;;;;;;;;4987779;28;20249;-69
2022/07/29 06:10:15;;;;;;;1999.90;999.90;;;;;;;;;;4987242;28;20247;-69
2022/07/29 06:13:01;;;;;;;1999.90;999.90;;;;;;;;;;4987904;28;20195;-69
2022/07/29 06:15:46;;;;;;;1999.90;999.90;;;;;;;;;;4995194;28;20269;-68
2022/07/29 06:18:32;;;;;;;1999.90;999.90;;;;;;;;;;4992568;28;20690;-69
2022/07/29 06:21:17;;;;;;;1999.90;999.90;;;;;;;;;;4992737;28;20211;-69
2022/07/29 06:24:02;;;;;;;1999.90;999.90;;;;;;;;;;4990568;28;20411;-66
2022/07/29 06:26:47;;;;;;;1999.90;999.90;;;;;;;;;;4990950;28;20220;-69
2022/07/29 06:29:34;;;;;;;1999.90;999.90;;;;;;;;;;4992374;28;20215;-69
2022/07/29 06:32:19;;;;;;;1999.90;999.90;;;;;;;;;;4986656;28;20212;-69
2022/07/29 06:35:04;;;;;;;1999.90;999.90;;;;;;;;;;4973348;29;20227;-69
2022/07/29 06:37:50;;;;;;;1999.90;999.90;;;;;;;;;;4985167;28;20229;-67
2022/07/29 06:43:41;;;;;;;1999.90;999.90;;;;;;;;;;4978198;28;20223;-67
2022/07/29 06:46:27;;;;;;;1999.90;999.90;;;;;;;;;;4987222;28;20284;-68
2022/07/29 06:49:13;;;;;;;1999.90;999.90;;;;;;;;;;4974300;28;20200;-69
2022/07/29 06:51:58;;;;;;;1999.90;999.90;;;;;;;;;;4992170;28;20251;-68
2022/07/29 06:54:47;;;;;;;1999.90;999.90;;;;;;;;;;4993702;28;20227;-69
2022/07/29 06:57:32;;;;;;;1999.90;999.90;;;;;;;;;;4992119;28;20224;-69
2022/07/29 07:00:18;;;;;;;1999.90;999.90;;;;;;;;;;4989222;28;20410;-69
2022/07/29 07:03:04;;;;;;;1999.90;999.90;;;;;;;;;;4974432;28;20704;-69
2022/07/29 07:05:50;;;;;;;1999.90;999.90;;;;;;;;;;4971371;28;20213;-67
2022/07/29 07:08:35;;;;;;;1999.90;999.90;;;;;;;;;;4973144;28;20261;-69
2022/07/29 07:11:20;;;;;;;1999.90;999.90;;;;;;;;;;4966380;28;20754;-68
2022/07/29 07:14:05;;;;;;;1999.90;999.90;;;;;;;;;;4974837;28;20253;-71
2022/07/29 07:16:50;;;;;;;1999.90;999.90;;;;;;;;;;4983475;28;20238;-68
2022/07/29 07:19:36;;;;;;;1999.90;999.90;;;;;;;;;;4975548;28;20439;-68
2022/07/29 07:22:21;;;;;;;1999.90;999.90;;;;;;;;;;4981125;28;20204;-67
2022/07/29 07:25:06;;;;;;;1999.90;999.90;;;;;;;;;;4975151;28;20235;-70
2022/07/29 07:27:51;;;;;;;1999.90;999.90;;;;;;;;;;4972042;28;20223;-69
2022/07/29 07:30:36;;;;;;;1999.90;999.90;;;;;;;;;;4973768;28;20213;-69
2022/07/29 07:33:21;;;;;;;1999.90;999.90;;;;;;;;;;4971928;28;20227;-68
2022/07/29 07:36:07;;;;;;;1999.90;999.90;;;;;;;;;;4975317;28;20211;-69
2022/07/29 07:38:52;;;;;;;1999.90;999.90;;;;;;;;;;4979227;28;20692;-69
2022/07/29 07:41:37;;;;;;;1999.90;999.90;;;;;;;;;;4972888;28;20811;-69
2022/07/29 07:44:22;;;;;;;1999.90;999.90;;;;;;;;;;4979406;28;20243;-69
2022/07/29 07:47:07;;;;;;;1999.90;999.90;;;;;;;;;;4979048;28;20289;-67
2022/07/29 07:49:52;;;;;;;1999.90;999.90;;;;;;;;;;4974286;28;20200;-69
2022/07/29 07:52:48;;;;;;;1999.90;999.90;;;;;;;;;;4977206;28;20523;-67
2022/07/29 07:55:33;;;;;;;1999.90;999.90;;;;;;;;;;4979638;28;20212;-70
2022/07/29 07:58:18;;;;;;;1999.90;999.90;;;;;;;;;;4971280;28;20213;-69
2022/07/29 08:01:03;;;;;;;1999.90;999.90;;;;;;;;;;4969719;28;20703;-69
2022/07/29 08:03:48;;;;;;;1999.90;999.90;;;;;;;;;;4969827;28;20243;-68
2022/07/29 08:06:34;;;;;;;1999.90;999.90;;;;;;;;;;4969122;28;20304;-69
2022/07/29 08:09:21;;;;;;;1999.90;999.90;;;;;;;;;;4969430;28;20495;-68
2022/07/29 08:12:06;;;;;;;1999.90;999.90;;;;;;;;;;4970445;28;20344;-68
2022/07/29 08:14:51;;;;;;;1999.90;999.90;;;;;;;;;;4973405;28;20783;-68
2022/07/29 08:17:36;;;;;;;1999.90;999.90;;;;;;;;;;4976955;28;20282;-68
2022/07/29 08:20:21;;;;;;;1999.90;999.90;;;;;;;;;;4976452;28;20707;-68
2022/07/29 08:23:08;;;;;;;1999.90;999.90;;;;;;;;;;4974891;28;20212;-68
2022/07/29 08:25:54;;;;;;;1999.90;999.90;;;;;;;;;;4976635;28;20336;-69
2022/07/29 08:28:40;;;;;;;1999.90;999.90;;;;;;;;;;4978379;28;20262;-68
2022/07/29 08:31:25;;;;;;;1999.90;999.90;;;;;;;;;;4978933;28;20310;-69
2022/07/29 08:34:11;;;;;;;1999.90;999.90;;;;;;;;;;4976640;28;20234;-69
2022/07/29 08:36:57;;;;;;;1999.90;999.90;;;;;;;;;;4974778;28;20298;-68
2022/07/29 08:39:42;;;;;;;1999.90;999.90;;;;;;;;;;4972552;28;20338;-68
2022/07/29 08:42:29;;;;;;;1999.90;999.90;;;;;;;;;;4973602;28;20220;-68
2022/07/29 08:45:14;;;;;;;1999.90;999.90;;;;;;;;;;4971760;28;20291;-68
2022/07/29 08:47:59;;;;;;;1999.90;999.90;;;;;;;;;;4972381;28;20226;-68
2022/07/29 08:50:44;;;;;;;1999.90;999.90;;;;;;;;;;4970811;28;20227;-68
2022/07/29 08:53:30;;;;;;;1999.90;999.90;;;;;;;;;;4975573;28;20242;-70
2022/07/29 08:56:16;;;;;;;1999.90;999.90;;;;;;;;;;4976956;28;20215;-69
2022/07/29 08:59:03;;;;;;;1999.90;999.90;;;;;;;;;;4973612;28;20255;-69
2022/07/29 09:01:48;;;;;;;1999.90;999.90;;;;;;;;;;4976902;28;20310;-70
2022/07/29 09:04:35;;;;;;;1999.90;999.90;;;;;;;;;;4972376;28;20415;-69
2022/07/29 09:07:20;;;;;;;1999.90;999.90;;;;;;;;;;4972639;28;20303;-70
2022/07/29 09:10:05;;;;;;;1999.90;999.90;;;;;;;;;;4971828;28;20231;-69
2022/07/29 09:12:52;;;;;;;1999.90;999.90;;;;;;;;;;4972538;28;21447;-71
2022/07/29 09:15:38;;;;;;;1999.90;999.90;;;;;;;;;;4970177;28;20717;-69
2022/07/29 09:18:44;;;;;;;1999.90;999.90;;;;;;;;;;4970054;28;20215;-70
2022/07/29 09:21:59;;;;;;;1999.90;999.90;;;;;;;;;;4973545;28;20212;-69
2022/07/29 09:24:45;;;;;;;1999.90;999.90;;;;;;;;;;4971920;28;20725;-69
2022/07/29 09:27:30;;;;;;;1999.90;999.90;;;;;;;;;;4971407;28;20293;-69
2022/07/29 09:30:15;;;;;;;1999.90;999.90;;;;;;;;;;4971138;28;20289;-70
2022/07/29 09:33:02;;;;;;;1999.90;999.90;;;;;;;;;;4971211;28;20215;-70
2022/07/29 09:35:58;;;;;;;1999.90;999.90;;;;;;;;;;4969415;28;20224;-69
2022/07/29 09:38:45;;;;;;;1999.90;999.90;;;;;;;;;;4972974;28;20251;-70
2022/07/29 09:41:30;;;;;;;1999.90;999.90;;;;;;;;;;4980306;28;20216;-70
2022/07/29 09:44:16;;;;;;;1999.90;999.90;;;;;;;;;;4969119;28;20303;-70
2022/07/29 09:47:05;;;;;;;1999.90;999.90;;;;;;;;;;4966378;28;20298;-70
2022/07/29 09:49:53;;;;;;;1999.90;999.90;;;;;;;;;;4969800;28;20690;-71
2022/07/29 09:52:45;;;;;;;1999.90;999.90;;;;;;;;;;4970467;28;20227;-72
2022/07/29 09:55:30;;;;;;;1999.90;999.90;;;;;;;;;;4969346;28;20235;-71
2022/07/29 09:58:17;;;;;;;1999.90;999.90;;;;;;;;;;4969196;28;20880;-71
2022/07/29 10:01:02;;;;;;;1999.90;999.90;;;;;;;;;;4972270;28;20217;-71
2022/07/29 10:03:51;;;;;;;1999.90;999.90;;;;;;;;;;4972594;28;20814;-69
2022/07/29 10:06:55;;;;;;;1999.90;999.90;;;;;;;;;;4968465;28;20227;-71
2022/07/29 10:09:50;;;;;;;1999.90;999.90;;;;;;;;;;4967786;28;20726;-71
2022/07/29 10:12:35;;;;;;;1999.90;999.90;;;;;;;;;;4968418;28;20204;-70
2022/07/29 10:15:22;;;;;;;1999.90;999.90;;;;;;;;;;4972382;28;20229;-70
2022/07/29 10:18:07;;;;;;;1999.90;999.90;;;;;;;;;;4971789;28;20225;-71
2022/07/29 10:20:53;;;;;;;1999.90;999.90;;;;;;;;;;4971206;28;20260;-71
2022/07/29 10:23:40;;;;;;;1999.90;999.90;;;;;;;;;;4972275;28;20228;-71
2022/07/29 10:26:25;;;;;;;1999.90;999.90;;;;;;;;;;4972034;28;20208;-69
2022/07/29 10:29:10;;;;;;;1999.90;999.90;;;;;;;;;;4971353;28;20248;-70
2022/07/29 10:32:03;;;;;;;1999.90;999.90;;;;;;;;;;4972751;28;20207;-70
2022/07/29 10:34:58;;;;;;;1999.90;999.90;;;;;;;;;;4974909;28;20239;-71
2022/07/29 10:37:53;;;;;;;1999.90;999.90;;;;;;;;;;4975192;28;20208;-69
2022/07/29 10:43:49;;;;;;;1999.90;999.90;;;;;;;;;;4974444;28;20321;-70
2022/07/29 10:46:38;;;;;;;1999.90;999.90;;;;;;;;;;4979768;28;20288;-71
2022/07/29 10:49:24;;;;;;;1999.90;999.90;;;;;;;;;;4977355;28;20301;-70
2022/07/29 10:52:10;;;;;;;1999.90;999.90;;;;;;;;;;4975752;28;20215;-70
2022/07/29 10:54:58;;;;;;;1999.90;999.90;;;;;;;;;;4975013;28;20244;-71
2022/07/29 10:58:04;;;;;;;1999.90;999.90;;;;;;;;;;4974383;28;20256;-71
2022/07/29 11:00:50;;;;;;;1999.90;999.90;;;;;;;;;;4974341;28;20283;-72
2022/07/29 11:03:46;;;;;;;1999.90;999.90;;;;;;;;;;4974469;28;20231;-71
2022/07/29 11:06:46;;;;;;;1999.90;999.90;;;;;;;;;;4975368;28;20204;-71
2022/07/29 11:09:31;;;;;;;1999.90;999.90;;;;;;;;;;4971948;28;20626;-72
2022/07/29 11:12:31;;;;;;;1999.90;999.90;;;;;;;;;;4975019;28;20208;-71
2022/07/29 11:15:18;;;;;;;1999.90;999.90;;;;;;;;;;4972383;28;20235;-70
2022/07/29 11:18:07;;;;;;;1999.90;999.90;;;;;;;;;;4972312;28;20230;-71
2022/07/29 11:20:53;;;;;;;1999.90;999.90;;;;;;;;;;4973936;28;20714;-71
2022/07/29 11:23:39;;;;;;;1999.90;999.90;;;;;;;;;;4973951;28;20227;-71
2022/07/29 11:26:25;;;;;;;1999.90;999.90;;;;;;;;;;4973249;28;20333;-71
2022/07/29 11:29:17;;;;;;;1999.90;999.90;;;;;;;;;;4971970;28;20777;-71
2022/07/29 11:32:11;;;;;;;1999.90;999.90;;;;;;;;;;4969994;28;20212;-71
2022/07/29 11:35:13;;;;;;;1999.90;999.90;;;;;;;;;;4972771;28;20851;-71
2022/07/29 11:38:12;;;;;;;1999.90;999.90;;;;;;;;;;4979379;28;20219;-70
2022/07/29 11:41:16;;;;;;;1999.90;999.90;;;;;;;;;;4971171;28;21094;-70
2022/07/29 11:44:01;;;;;;;1999.90;999.90;;;;;;;;;;4969777;28;20447;-70
2022/07/29 11:46:48;;;;;;;1999.90;999.90;;;;;;;;;;4972316;28;20573;-70
2022/07/29 11:49:34;;;;;;;1999.90;999.90;;;;;;;;;;4970968;28;20231;-71
2022/07/29 11:52:20;;;;;;;1999.90;999.90;;;;;;;;;;4968145;28;20220;-70
2022/07/29 11:55:07;;;;;;;1999.90;999.90;;;;;;;;;;4971858;28;20232;-71
2022/07/29 11:57:53;;;;;;;1999.90;999.90;;;;;;;;;;4968726;28;20218;-70
2022/07/29 12:00:40;;;;;;;1999.90;999.90;;;;;;;;;;4970019;28;20215;-71
2022/07/29 12:03:26;;;;;;;1999.90;999.90;;;;;;;;;;4972295;28;20375;-70
2022/07/29 12:06:16;;;;;;;1999.90;999.90;;;;;;;;;;4972177;28;20799;-69
2022/07/29 12:09:01;;;;;;;1999.90;999.90;;;;;;;;;;4970808;28;20798;-70
2022/07/29 12:11:46;;;;;;;1999.90;999.90;;;;;;;;;;4971925;28;20597;-70
2022/07/29 12:14:33;;;;;;;1999.90;999.90;;;;;;;;;;4970981;28;20359;-71
2022/07/29 12:17:27;;;;;;;1999.90;999.90;;;;;;;;;;4972447;28;20205;-71
2022/07/29 12:20:13;;;;;;;1999.90;999.90;;;;;;;;;;4973860;28;20559;-71
2022/07/29 12:23:05;;;;;;;1999.90;999.90;;;;;;;;;;4973665;28;20203;-71
2022/07/29 12:25:50;;;;;;;1999.90;999.90;;;;;;;;;;4972782;28;20217;-70
2022/07/29 12:28:37;;;;;;;1999.90;999.90;;;;;;;;;;4971900;28;20222;-70
2022/07/29 12:31:23;;;;;;;1999.90;999.90;;;;;;;;;;4971275;28;20213;-71
2022/07/29 12:34:08;;;;;;;1999.90;999.90;;;;;;;;;;4968810;28;20304;-71
2022/07/29 12:36:53;;;;;;;1999.90;999.90;;;;;;;;;;4971029;28;20394;-70
2022/07/29 12:39:39;;;;;;;1999.90;999.90;;;;;;;;;;4965755;28;20208;-70
2022/07/29 12:42:25;;;;;;;1999.90;999.90;;;;;;;;;;4967485;28;20206;-70
2022/07/29 12:45:11;;;;;;;1999.90;999.90;;;;;;;;;;4967219;28;20239;-69
2022/07/29 12:47:56;;;;;;;1999.90;999.90;;;;;;;;;;4970807;28;20906;-71
2022/07/29 12:50:58;;;;;;;1999.90;999.90;;;;;;;;;;4969006;28;20209;-72
2022/07/29 12:54:02;;;;;;;1999.90;999.90;;;;;;;;;;4971455;28;20216;-72
2022/07/29 12:56:59;;;;;;;1999.90;999.90;;;;;;;;;;4972181;28;20204;-70
2022/07/29 12:59:43;;;;;;;1999.90;999.90;;;;;;;;;;4970036;28;20561;-72
2022/07/29 13:02:28;;;;;;;1999.90;999.90;;;;;;;;;;4971190;28;20763;-72
2022/07/29 13:05:13;;;;;;;1999.90;999.90;;;;;;;;;;4969203;28;20302;-72
2022/07/29 13:08:10;;;;;;;1999.90;999.90;;;;;;;;;;4970029;28;20227;-72
2022/07/29 13:10:55;;;;;;;1999.90;999.90;;;;;;;;;;4969578;28;20218;-70
2022/07/29 13:13:52;;;;;;;1999.90;999.90;;;;;;;;;;4970201;28;20555;-73
2022/07/29 13:16:37;;;;;;;1999.90;999.90;;;;;;;;;;4969642;28;20339;-71
2022/07/29 13:19:33;;;;;;;1999.90;999.90;;;;;;;;;;4969894;28;20324;-72
2022/07/29 13:22:19;;;;;;;1999.90;999.90;;;;;;;;;;4971483;28;20227;-72
2022/07/29 13:25:06;;;;;;;1999.90;999.90;;;;;;;;;;4971195;28;20239;-71
2022/07/29 13:27:51;;;;;;;1999.90;999.90;;;;;;;;;;4970939;28;20717;-71
2022/07/29 13:30:37;;;;;;;1999.90;999.90;;;;;;;;;;4969990;28;20575;-72
2022/07/29 13:33:23;;;;;;;1999.90;999.90;;;;;;;;;;4970528;28;20235;-71
2022/07/29 13:36:08;;;;;;;1999.90;999.90;;;;;;;;;;4970124;28;20351;-72
2022/07/29 13:38:53;;;;;;;1999.90;999.90;;;;;;;;;;4970077;28;20218;-72
2022/07/29 13:41:38;;;;;;;1999.90;999.90;;;;;;;;;;4970096;28;20222;-71
2022/07/29 13:44:23;;;;;;;1999.90;999.90;;;;;;;;;;4970212;28;20295;-71
2022/07/29 13:47:09;;;;;;;1999.90;999.90;;;;;;;;;;4969611;28;20270;-71
2022/07/29 13:49:54;;;;;;;1999.90;999.90;;;;;;;;;;4970493;28;20232;-71
2022/07/29 13:52:39;;;;;;;1999.90;999.90;;;;;;;;;;4970933;28;20219;-71
2022/07/29 13:55:24;;;;;;;1999.90;999.90;;;;;;;;;;4968700;28;20360;-72
2022/07/29 13:58:09;;;;;;;1999.90;999.90;;;;;;;;;;4969472;28;20223;-72
2022/07/29 14:00:54;;;;;;;1999.90;999.90;;;;;;;;;;4969153;28;20215;-72
2022/07/29 14:03:42;;;;;;;1999.90;999.90;;;;;;;;;;4968072;28;20282;-72
2022/07/29 14:06:27;;;;;;;1999.90;999.90;;;;;;;;;;4969049;28;20271;-73
2022/07/29 14:09:12;;;;;;;1999.90;999.90;;;;;;;;;;4967259;28;20224;-72
2022/07/29 14:11:57;;;;;;;1999.90;999.90;;;;;;;;;;4966282;28;20264;-71
2022/07/29 14:14:50;;;;;;;1999.90;999.90;;;;;;;;;;4966283;28;20255;-71
2022/07/29 14:17:35;;;;;;;1999.90;999.90;;;;;;;;;;4968539;28;20199;-73
2022/07/29 14:20:22;;;;;;;1999.90;999.90;;;;;;;;;;4968337;28;20279;-73
2022/07/29 14:23:07;;;;;;;1999.90;999.90;;;;;;;;;;4967694;28;20436;-71
2022/07/29 14:25:52;;;;;;;1999.90;999.90;;;;;;;;;;4969926;28;20219;-70
2022/07/29 14:28:37;;;;;;;1999.90;999.90;;;;;;;;;;4969787;28;20603;-71
2022/07/29 14:31:22;;;;;;;1999.90;999.90;;;;;;;;;;4970250;28;20293;-72
2022/07/29 14:34:07;;;;;;;1999.90;999.90;;;;;;;;;;4970997;28;20306;-72
2022/07/29 14:36:55;;;;;;;1999.90;999.90;;;;;;;;;;4970791;28;20590;-72
2022/07/29 14:39:40;;;;;;;1999.90;999.90;;;;;;;;;;4970378;28;20348;-71
2022/07/29 14:42:25;;;;;;;1999.90;999.90;;;;;;;;;;4970843;28;20219;-71
2022/07/29 14:45:10;;;;;;;1999.90;999.90;;;;;;;;;;4969237;28;20743;-73
2022/07/29 14:47:59;;;;;;;1999.90;999.90;;;;;;;;;;4963997;28;20216;-72
2022/07/29 14:50:44;;;;;;;1999.90;999.90;;;;;;;;;;4967917;28;20243;-71
2022/07/29 14:53:30;;;;;;;1999.90;999.90;;;;;;;;;;4971831;28;20279;-71
2022/07/29 14:56:15;;;;;;;1999.90;999.90;;;;;;;;;;4969327;28;20227;-71
2022/07/29 14:59:00;;;;;;;1999.90;999.90;;;;;;;;;;4965103;28;20220;-70
2022/07/29 15:01:45;;;;;;;1999.90;999.90;;;;;;;;;;4964082;28;20303;-70
2022/07/29 15:04:31;;;;;;;1999.90;999.90;;;;;;;;;;4965009;28;20585;-70
2022/07/29 15:07:16;;;;;;;1999.90;999.90;;;;;;;;;;4968436;28;20592;-70
2022/07/29 15:10:04;;;;;;;1999.90;999.90;;;;;;;;;;4965624;28;20224;-73
2022/07/29 15:12:48;;;;;;;1999.90;999.90;;;;;;;;;;4970870;28;20220;-73
2022/07/29 15:15:34;;;;;;;1999.90;999.90;;;;;;;;;;4967509;28;20211;-71
2022/07/29 15:18:18;;;;;;;1999.90;999.90;;;;;;;;;;4970856;28;20698;-72
2022/07/29 15:21:03;;;;;;;1999.90;999.90;;;;;;;;;;4967373;28;20212;-73
2022/07/29 15:23:48;;;;;;;1999.90;999.90;;;;;;;;;;4968554;28;20223;-70
2022/07/29 15:26:35;;;;;;;1999.90;999.90;;;;;;;;;;4972304;28;20284;-72
2022/07/29 15:29:20;;;;;;;1999.90;999.90;;;;;;;;;;4967956;28;20224;-72
2022/07/29 15:32:05;;;;;;;1999.90;999.90;;;;;;;;;;4970316;28;20478;-70
2022/07/29 15:34:50;;;;;;;1999.90;999.90;;;;;;;;;;4968452;28;20299;-72
2022/07/29 15:37:35;;;;;;;1999.90;999.90;;;;;;;;;;4968708;28;20216;-72
2022/07/29 15:40:20;;;;;;;1999.90;999.90;;;;;;;;;;4971293;28;20304;-72